createdAt,value
2018-07-23T00:02:13.318Z,99.90
2018-07-23T00:04:42.007Z,99.90
2018-07-23T00:07:10.684Z,99.90
2018-07-23T00:09:39.371Z,99.90
2018-07-23T00:12:08.182Z,99.90
2018-07-23T00:14:36.857Z,99.90
2018-07-23T00:17:06.274Z,99.90
2018-07-23T00:19:34.966Z,99.90
2018-07-23T00:22:03.693Z,99.90
2018-07-23T00:24:32.429Z,99.90
2018-07-23T00:27:01.102Z,99.90
2018-07-23T00:29:29.792Z,99.90
2018-07-23T00:31:58.444Z,99.90
2018-07-23T00:34:27.121Z,99.90
2018-07-23T00:36:55.794Z,99.90
2018-07-23T00:39:24.469Z,99.90
2018-07-23T00:41:53.192Z,99.90
2018-07-23T00:44:21.984Z,99.90
2018-07-23T00:46:50.724Z,99.90
2018-07-23T00:49:19.611Z,99.90
2018-07-23T00:51:48.331Z,99.90
2018-07-23T00:54:17.026Z,99.90
2018-07-23T00:56:45.748Z,99.90
2018-07-23T00:59:14.437Z,99.90
2018-07-23T01:01:43.109Z,99.90
2018-07-23T01:04:11.818Z,99.90
2018-07-23T01:06:40.531Z,99.90
2018-07-23T01:09:10.274Z,99.90
2018-07-23T01:11:38.963Z,99.90
2018-07-23T01:14:08.017Z,99.90
2018-07-23T01:16:36.744Z,99.90
2018-07-23T01:19:05.458Z,99.90
2018-07-23T01:21:34.308Z,99.90
2018-07-23T01:24:03.015Z,99.90
2018-07-23T01:26:31.725Z,99.90
2018-07-23T01:29:00.409Z,99.90
2018-07-23T01:31:29.118Z,99.90
2018-07-23T01:33:57.817Z,99.90
2018-07-23T01:36:26.514Z,99.90
2018-07-23T01:38:55.178Z,99.90
2018-07-23T01:41:23.898Z,99.90
2018-07-23T01:43:52.590Z,99.90
2018-07-23T01:46:21.259Z,99.90
2018-07-23T01:48:49.964Z,99.90
2018-07-23T01:51:18.641Z,99.90
2018-07-23T01:53:47.338Z,99.90
2018-07-23T01:56:16.062Z,99.90
2018-07-23T01:58:44.786Z,99.90
2018-07-23T02:01:13.469Z,99.90
2018-07-23T02:03:42.513Z,99.90
2018-07-23T02:06:11.334Z,99.90
2018-07-23T02:08:40.092Z,99.90
2018-07-23T02:11:08.836Z,99.90
2018-07-23T02:13:37.558Z,99.90
2018-07-23T02:16:06.324Z,99.90
2018-07-23T02:18:35.003Z,99.90
2018-07-23T02:21:03.931Z,99.90
2018-07-23T02:23:32.628Z,99.90
2018-07-23T02:26:01.304Z,99.90
2018-07-23T02:28:30.011Z,99.90
2018-07-23T02:30:58.689Z,99.90
2018-07-23T02:33:27.454Z,99.90
2018-07-23T02:35:56.137Z,99.90
2018-07-23T02:38:24.821Z,99.90
2018-07-23T02:40:53.506Z,99.90
2018-07-23T02:43:22.409Z,99.90
2018-07-23T02:45:51.123Z,99.90
2018-07-23T02:48:19.847Z,99.90
2018-07-23T02:50:48.554Z,99.90
2018-07-23T02:53:17.217Z,99.90
2018-07-23T02:55:45.906Z,99.90
2018-07-23T02:58:14.551Z,99.90
2018-07-23T03:00:43.282Z,99.90
2018-07-23T03:03:11.953Z,99.90
2018-07-23T03:05:40.692Z,99.90
2018-07-23T03:08:09.451Z,99.90
2018-07-23T03:10:38.244Z,99.90
2018-07-23T03:13:07.401Z,99.90
2018-07-23T03:15:36.147Z,99.90
2018-07-23T03:18:04.875Z,99.90
2018-07-23T03:20:33.652Z,99.90
2018-07-23T03:23:02.446Z,99.90
2018-07-23T03:25:31.110Z,99.90
2018-07-23T03:27:59.790Z,99.90
2018-07-23T03:30:28.446Z,99.90
2018-07-23T03:32:57.148Z,99.90
2018-07-23T03:35:25.821Z,99.90
2018-07-23T03:37:54.659Z,99.90
2018-07-23T03:40:23.335Z,99.90
2018-07-23T03:42:52.171Z,99.90
2018-07-23T03:45:21.087Z,99.90
2018-07-23T03:47:49.773Z,99.90
2018-07-23T03:50:18.482Z,99.90
2018-07-23T03:52:47.169Z,99.90
2018-07-23T03:55:15.874Z,99.90
2018-07-23T03:57:44.599Z,99.90
2018-07-23T04:00:13.325Z,99.90
2018-07-23T04:02:42.071Z,99.90
2018-07-23T04:05:10.791Z,99.90
2018-07-23T04:07:39.498Z,99.90
2018-07-23T04:10:08.214Z,99.90
2018-07-23T04:12:36.910Z,99.90
2018-07-23T04:15:07.239Z,99.90
2018-07-23T04:17:36.010Z,99.90
2018-07-23T04:20:04.893Z,99.90
2018-07-23T04:22:33.598Z,99.90
2018-07-23T04:25:02.296Z,99.90
2018-07-23T04:27:30.988Z,99.90
2018-07-23T04:29:59.665Z,99.90
2018-07-23T04:32:28.338Z,99.90
2018-07-23T04:34:57.024Z,99.90
2018-07-23T04:37:25.707Z,99.90
2018-07-23T04:39:54.390Z,99.90
2018-07-23T04:42:23.109Z,99.90
2018-07-23T04:44:51.768Z,99.90
2018-07-23T04:47:20.437Z,99.90
2018-07-23T04:49:49.081Z,99.90
2018-07-23T04:52:17.773Z,99.90
2018-07-23T04:54:46.494Z,99.90
2018-07-23T04:57:15.198Z,99.90
2018-07-23T04:59:44.023Z,99.90
2018-07-23T05:02:12.728Z,99.90
2018-07-23T05:04:41.455Z,99.90
2018-07-23T05:07:10.153Z,99.90
2018-07-23T05:09:38.816Z,99.90
2018-07-23T05:12:07.502Z,99.90
2018-07-23T05:14:36.194Z,99.90
2018-07-23T05:17:04.930Z,99.90
2018-07-23T05:19:33.626Z,99.90
2018-07-23T05:22:02.284Z,99.90
2018-07-23T05:24:31.009Z,99.90
2018-07-23T05:26:59.664Z,99.90
2018-07-23T05:29:28.338Z,99.90
2018-07-23T05:31:57.018Z,99.90
2018-07-23T05:34:25.687Z,99.90
2018-07-23T05:36:54.370Z,99.90
2018-07-23T05:39:23.023Z,99.90
2018-07-23T05:41:51.753Z,99.90
2018-07-23T05:44:20.994Z,99.90
2018-07-23T05:46:49.695Z,99.90
2018-07-23T05:49:18.423Z,99.90
2018-07-23T05:51:47.098Z,99.90
2018-07-23T05:54:15.800Z,99.90
2018-07-23T05:56:44.486Z,99.90
2018-07-23T05:59:13.173Z,99.90
2018-07-23T06:01:41.919Z,99.90
2018-07-23T06:04:10.639Z,99.90
2018-07-23T06:06:39.330Z,99.90
2018-07-23T06:09:09.110Z,99.90
2018-07-23T06:11:37.782Z,99.90
2018-07-23T06:14:06.491Z,99.90
2018-07-23T06:16:35.247Z,99.90
2018-07-23T06:21:32.264Z,99.90
2018-07-23T06:24:00.929Z,99.90
2018-07-23T06:26:29.641Z,99.90
2018-07-23T06:28:58.326Z,99.90
2018-07-23T06:31:27.028Z,99.90
2018-07-23T06:33:55.748Z,99.90
2018-07-23T06:36:24.387Z,99.90
2018-07-23T06:38:53.147Z,99.90
2018-07-23T06:41:21.814Z,99.90
2018-07-23T06:43:50.469Z,99.90
2018-07-23T06:46:19.354Z,99.90
2018-07-23T06:48:48.009Z,99.90
2018-07-23T06:51:16.677Z,99.90
2018-07-23T06:53:45.359Z,99.90
2018-07-23T06:56:14.018Z,99.90
2018-07-23T06:58:54.814Z,99.90
2018-07-23T07:01:23.503Z,99.90
2018-07-23T07:03:52.184Z,99.90
2018-07-23T07:06:20.878Z,99.90
2018-07-23T07:08:49.568Z,99.90
2018-07-23T07:11:18.262Z,99.90
2018-07-23T07:13:46.929Z,99.90
2018-07-23T07:16:15.654Z,99.90
2018-07-23T07:18:44.309Z,99.90
2018-07-23T07:21:13.005Z,99.90
2018-07-23T07:23:41.671Z,99.90
2018-07-23T07:26:10.371Z,99.90
2018-07-23T07:28:39.037Z,99.90
2018-07-23T07:31:07.709Z,99.90
2018-07-23T07:33:36.376Z,99.90
2018-07-23T07:36:05.028Z,99.90
2018-07-23T07:38:33.718Z,99.90
2018-07-23T07:41:02.425Z,99.90
2018-07-23T07:43:31.124Z,99.90
2018-07-23T07:45:59.809Z,99.90
2018-07-23T07:48:28.870Z,99.90
2018-07-23T07:50:57.528Z,99.90
2018-07-23T07:53:26.229Z,99.90
2018-07-23T07:55:54.911Z,99.90
2018-07-23T07:58:23.577Z,99.90
2018-07-23T08:00:52.308Z,99.90
2018-07-23T08:03:21.041Z,99.90
2018-07-23T08:05:49.754Z,99.90
2018-07-23T08:08:18.426Z,99.90
2018-07-23T08:10:47.120Z,99.90
2018-07-23T08:13:18.714Z,99.90
2018-07-23T08:15:47.605Z,99.90
2018-07-23T08:18:16.307Z,99.90
2018-07-23T08:20:45.014Z,99.90
2018-07-23T08:23:13.713Z,99.90
2018-07-23T08:25:42.402Z,99.90
2018-07-23T08:28:11.126Z,99.90
2018-07-23T08:30:39.786Z,99.90
2018-07-23T08:33:09.078Z,99.90
2018-07-23T08:35:38.010Z,99.90
2018-07-23T08:38:06.708Z,99.90
2018-07-23T08:40:35.397Z,99.90
2018-07-23T08:43:04.195Z,99.90
2018-07-23T08:45:32.928Z,99.90
2018-07-23T08:48:01.686Z,99.90
2018-07-23T08:50:30.454Z,99.30
2018-07-23T08:52:59.192Z,99.50
2018-07-23T08:55:28.730Z,97.90
2018-07-23T08:57:57.738Z,97.60
2018-07-23T09:00:26.506Z,97.90
2018-07-23T09:02:55.260Z,97.60
2018-07-23T09:05:24.084Z,97.00
2018-07-23T09:07:52.813Z,96.70
2018-07-23T09:10:21.608Z,96.60
2018-07-23T09:12:50.457Z,96.60
2018-07-23T09:15:19.261Z,96.40
2018-07-23T09:17:48.048Z,96.50
2018-07-23T09:20:16.736Z,95.60
2018-07-23T09:22:45.478Z,94.10
2018-07-23T09:25:14.246Z,94.90
2018-07-23T09:27:42.957Z,95.70
2018-07-23T09:30:17.246Z,96.00
2018-07-23T09:32:45.979Z,95.80
2018-07-23T09:35:14.669Z,96.10
2018-07-23T09:37:43.389Z,96.00
2018-07-23T09:40:12.079Z,96.00
2018-07-23T09:42:40.796Z,95.20
2018-07-23T09:45:09.531Z,94.60
2018-07-23T09:47:38.256Z,93.90
2018-07-23T09:50:06.960Z,92.20
2018-07-23T09:52:35.672Z,91.90
2018-07-23T09:55:04.445Z,91.30
2018-07-23T09:57:33.167Z,92.40
2018-07-23T10:00:01.944Z,91.30
2018-07-23T10:02:30.619Z,90.50
2018-07-23T10:04:59.325Z,90.00
2018-07-23T10:07:28.031Z,89.40
2018-07-23T10:09:56.707Z,86.80
2018-07-23T10:12:25.406Z,82.60
2018-07-23T10:14:54.063Z,85.60
2018-07-23T10:17:22.762Z,85.10
2018-07-23T10:19:51.817Z,84.40
2018-07-23T10:22:20.563Z,85.50
2018-07-23T10:24:49.231Z,86.30
2018-07-23T10:27:17.926Z,88.20
2018-07-23T10:29:46.600Z,86.20
2018-07-23T10:32:15.322Z,85.80
2018-07-23T10:34:43.999Z,86.50
2018-07-23T10:37:12.681Z,80.40
2018-07-23T10:39:41.384Z,82.20
2018-07-23T10:42:10.051Z,79.40
2018-07-23T10:44:38.818Z,81.30
2018-07-23T10:47:07.488Z,81.00
2018-07-23T10:49:36.263Z,79.60
2018-07-23T10:52:04.922Z,78.60
2018-07-23T10:54:33.606Z,80.80
2018-07-23T10:57:02.307Z,78.50
2018-07-23T10:59:31.006Z,81.60
2018-07-23T11:01:59.710Z,77.30
2018-07-23T11:04:28.401Z,74.30
2018-07-23T11:06:57.118Z,74.30
2018-07-23T11:09:25.837Z,73.80
2018-07-23T11:11:54.594Z,73.70
2018-07-23T11:14:23.714Z,72.50
2018-07-23T11:16:52.478Z,71.80
2018-07-23T11:19:21.191Z,72.60
2018-07-23T11:21:49.884Z,69.10
2018-07-23T11:24:18.607Z,71.10
2018-07-23T11:26:47.271Z,71.20
2018-07-23T11:29:15.987Z,67.20
2018-07-23T11:31:44.684Z,67.70
2018-07-23T11:34:13.415Z,65.30
2018-07-23T11:36:42.124Z,65.30
2018-07-23T11:39:12.056Z,64.50
2018-07-23T11:41:40.899Z,64.70
2018-07-23T11:44:09.565Z,62.70
2018-07-23T11:46:38.273Z,63.50
2018-07-23T11:49:06.961Z,62.70
2018-07-23T11:51:35.784Z,61.90
2018-07-23T11:54:04.538Z,60.20
2018-07-23T11:56:33.264Z,58.00
2018-07-23T11:59:02.071Z,59.60
2018-07-23T12:01:30.981Z,60.60
2018-07-23T12:03:59.636Z,60.00
2018-07-23T12:06:28.310Z,59.40
2018-07-23T12:08:57.005Z,60.00
2018-07-23T12:11:25.752Z,58.00
2018-07-23T12:13:54.453Z,57.40
2018-07-23T12:16:23.135Z,56.90
2018-07-23T12:18:51.811Z,58.20
2018-07-23T12:21:20.481Z,56.60
2018-07-23T12:23:49.580Z,57.70
2018-07-23T12:26:18.249Z,54.50
2018-07-23T12:28:46.954Z,53.60
2018-07-23T12:31:15.657Z,54.70
2018-07-23T12:33:44.332Z,56.20
2018-07-23T12:36:13.065Z,54.60
2018-07-23T12:38:41.729Z,53.70
2018-07-23T12:41:10.443Z,51.80
2018-07-23T12:43:39.122Z,53.00
2018-07-23T12:46:07.831Z,51.40
2018-07-23T12:48:36.503Z,52.10
2018-07-23T12:51:05.242Z,51.70
2018-07-23T12:53:33.946Z,50.80
2018-07-23T12:56:02.626Z,49.90
2018-07-23T12:58:31.317Z,50.10
2018-07-23T13:01:00.016Z,49.20
2018-07-23T13:03:28.748Z,49.40
2018-07-23T13:05:57.432Z,48.50
2018-07-23T13:08:26.126Z,50.10
2018-07-23T13:10:54.860Z,48.30
2018-07-23T13:13:23.726Z,48.30
2018-07-23T13:18:20.752Z,48.00
2018-07-23T13:20:49.448Z,46.40
2018-07-23T13:23:18.198Z,46.30
2018-07-23T13:25:46.913Z,45.70
2018-07-23T13:28:15.591Z,44.10
2018-07-23T13:30:44.333Z,43.80
2018-07-23T13:35:41.378Z,42.70
2018-07-23T13:38:10.268Z,41.00
2018-07-23T13:40:38.957Z,40.40
2018-07-23T13:43:07.856Z,40.40
2018-07-23T13:45:36.549Z,41.20
2018-07-23T13:48:05.287Z,41.90
2018-07-23T13:50:33.989Z,41.10
2018-07-23T13:53:02.737Z,40.60
2018-07-23T13:55:31.466Z,41.60
2018-07-23T13:58:00.138Z,40.50
2018-07-23T14:00:28.830Z,38.60
2018-07-23T14:02:57.502Z,40.30
2018-07-23T14:05:26.366Z,40.30
2018-07-23T14:07:55.026Z,41.20
2018-07-23T14:10:23.698Z,42.40
2018-07-23T14:12:52.465Z,42.50
2018-07-23T14:15:21.140Z,42.60
2018-07-23T14:17:49.833Z,41.60
2018-07-23T14:20:18.517Z,42.00
2018-07-23T14:22:47.209Z,42.40
2018-07-23T14:25:15.880Z,42.90
2018-07-23T14:27:44.584Z,43.50
2018-07-23T14:30:13.291Z,45.30
2018-07-23T14:32:41.942Z,46.60
2018-07-23T14:35:10.678Z,47.60
2018-07-23T14:37:39.370Z,48.50
2018-07-23T14:40:08.115Z,48.00
2018-07-23T14:42:36.776Z,48.00
2018-07-23T14:45:06.189Z,47.60
2018-07-23T14:47:34.843Z,46.50
2018-07-23T14:50:03.551Z,44.70
2018-07-23T14:52:32.599Z,44.20
2018-07-23T14:55:01.260Z,44.00
2018-07-23T14:57:29.942Z,45.00
2018-07-23T14:59:58.600Z,45.60
2018-07-23T15:02:27.333Z,46.40
2018-07-23T15:04:56.062Z,47.60
2018-07-23T15:07:24.759Z,48.40
2018-07-23T15:09:53.460Z,48.30
2018-07-23T15:12:22.182Z,49.30
2018-07-23T15:14:50.859Z,49.80
2018-07-23T15:17:19.563Z,50.00
2018-07-23T15:19:48.217Z,50.00
2018-07-23T15:22:16.884Z,50.30
2018-07-23T15:24:45.588Z,51.50
2018-07-23T15:27:14.275Z,51.60
2018-07-23T15:29:42.998Z,50.80
2018-07-23T15:32:11.653Z,49.90
2018-07-23T15:34:40.342Z,48.30
2018-07-23T15:37:09.007Z,47.80
2018-07-23T15:39:37.710Z,48.80
2018-07-23T15:42:06.428Z,49.80
2018-07-23T15:44:35.329Z,50.00
2018-07-23T15:47:03.887Z,51.40
2018-07-23T15:49:32.537Z,51.90
2018-07-23T15:52:01.297Z,52.20
2018-07-23T15:54:29.958Z,53.10
2018-07-23T15:56:58.661Z,52.90
2018-07-23T15:59:27.329Z,53.30
2018-07-23T16:01:55.989Z,53.70
2018-07-23T16:04:24.688Z,53.80
2018-07-23T16:06:53.370Z,54.40
2018-07-23T16:09:22.042Z,54.00
2018-07-23T16:11:50.742Z,54.50
2018-07-23T16:14:19.463Z,53.20
2018-07-23T16:16:48.154Z,50.80
2018-07-23T16:19:16.830Z,48.70
2018-07-23T16:21:45.516Z,46.70
2018-07-23T16:24:14.270Z,45.80
2018-07-23T16:26:42.955Z,44.80
2018-07-23T16:29:11.634Z,43.90
2018-07-23T16:31:40.382Z,43.30
2018-07-23T16:34:09.130Z,43.40
2018-07-23T16:36:37.849Z,43.40
2018-07-23T16:39:09.178Z,43.50
2018-07-23T16:41:37.879Z,44.00
2018-07-23T16:44:07.132Z,45.60
2018-07-23T16:46:35.984Z,45.60
2018-07-23T16:49:04.673Z,45.70
2018-07-23T16:51:33.365Z,45.00
2018-07-23T16:54:02.387Z,46.00
2018-07-23T16:56:31.133Z,46.20
2018-07-23T16:58:59.873Z,47.00
2018-07-23T17:01:28.597Z,46.90
2018-07-23T17:03:57.327Z,47.40
2018-07-23T17:06:28.816Z,48.20
2018-07-23T17:09:12.720Z,48.20
2018-07-23T17:11:42.162Z,48.50
2018-07-23T17:14:10.847Z,48.00
2018-07-23T17:16:39.589Z,48.40
2018-07-23T17:19:08.313Z,47.60
2018-07-23T17:21:37.015Z,47.10
2018-07-23T17:24:05.784Z,46.70
2018-07-23T17:26:34.550Z,46.70
2018-07-23T17:29:03.258Z,48.20
2018-07-23T17:31:32.058Z,48.10
2018-07-23T17:34:00.765Z,49.30
2018-07-23T17:42:28.995Z,50.10
2018-07-23T17:44:57.694Z,50.20
2018-07-23T17:47:26.444Z,50.90
2018-07-23T17:49:55.182Z,50.80
2018-07-23T17:52:23.912Z,51.00
2018-07-23T17:54:52.632Z,51.20
2018-07-23T17:57:21.372Z,51.80
2018-07-23T17:59:50.086Z,52.00
2018-07-23T18:02:18.835Z,51.50
2018-07-23T18:04:47.645Z,51.80
2018-07-23T18:07:16.358Z,51.60
2018-07-23T18:09:45.429Z,51.80
2018-07-23T18:12:14.164Z,52.00
2018-07-23T18:14:42.896Z,52.00
2018-07-23T18:17:12.666Z,52.20
2018-07-23T18:19:41.369Z,52.00
2018-07-23T18:22:10.111Z,52.20
2018-07-23T18:24:38.791Z,52.50
2018-07-23T18:27:07.547Z,52.60
2018-07-23T18:29:36.230Z,52.70
2018-07-23T18:32:05.004Z,53.50
2018-07-23T18:34:33.709Z,53.60
2018-07-23T18:37:02.470Z,53.60
2018-07-23T18:39:32.037Z,53.70
2018-07-23T18:42:00.745Z,53.80
2018-07-23T18:44:29.479Z,52.80
2018-07-23T18:46:58.286Z,52.40
2018-07-23T18:49:41.066Z,53.00
2018-07-23T18:52:17.069Z,53.60
2018-07-23T18:54:47.103Z,53.80
2018-07-23T18:57:15.914Z,54.80
2018-07-23T18:59:44.693Z,55.00
2018-07-23T19:02:14.839Z,54.60
2018-07-23T19:04:43.704Z,55.10
2018-07-23T19:07:12.545Z,54.90
2018-07-23T19:09:41.452Z,56.20
2018-07-23T19:12:11.089Z,56.30
2018-07-23T19:14:40.001Z,58.00
2018-07-23T19:17:11.938Z,57.40
2018-07-23T19:19:41.801Z,57.30
2018-07-23T19:22:11.039Z,57.60
2018-07-23T19:24:40.000Z,58.40
2018-07-23T19:27:08.950Z,59.80
2018-07-23T19:29:37.710Z,61.40
2018-07-23T19:32:06.440Z,62.10
2018-07-23T19:34:35.116Z,62.60
2018-07-23T19:37:03.859Z,63.40
2018-07-23T19:39:32.565Z,64.50
2018-07-23T19:42:01.408Z,65.70
2018-07-23T19:44:30.108Z,66.70
2018-07-23T19:46:58.990Z,67.70
2018-07-23T19:49:27.667Z,68.30
2018-07-23T19:51:57.114Z,68.10
2018-07-23T19:54:25.845Z,68.60
2018-07-23T19:56:55.593Z,69.40
2018-07-23T19:59:24.391Z,70.90
2018-07-23T20:01:53.380Z,71.70
2018-07-23T20:04:22.240Z,75.50
2018-07-23T20:06:51.034Z,79.80
2018-07-23T20:09:19.747Z,81.30
2018-07-23T20:11:48.653Z,83.40
2018-07-23T20:14:17.603Z,85.00
2018-07-23T20:16:46.383Z,86.10
2018-07-23T20:19:15.173Z,86.20
2018-07-23T20:21:43.975Z,87.00
2018-07-23T20:24:12.826Z,88.30
2018-07-23T20:26:41.710Z,90.00
2018-07-23T20:29:10.578Z,90.50
2018-07-23T20:31:39.428Z,92.00
2018-07-23T20:34:08.295Z,93.30
2018-07-23T20:36:37.138Z,93.20
2018-07-23T20:39:07.420Z,93.70
2018-07-23T20:41:36.239Z,94.30
2018-07-23T20:44:05.090Z,94.60
2018-07-23T20:46:33.972Z,95.10
2018-07-23T20:49:02.771Z,95.70
2018-07-23T20:51:31.651Z,96.50
2018-07-23T20:54:00.423Z,97.30
2018-07-23T20:56:29.151Z,98.10
2018-07-23T20:58:57.978Z,99.00
2018-07-23T21:01:26.757Z,99.90
2018-07-23T21:03:55.709Z,99.90
2018-07-23T21:06:24.419Z,99.90
2018-07-23T21:08:53.216Z,99.90
2018-07-23T21:11:22.023Z,99.90
2018-07-23T21:13:50.869Z,99.90
2018-07-23T21:16:19.655Z,99.90
2018-07-23T21:18:48.445Z,99.90
2018-07-23T21:21:17.244Z,99.90
2018-07-23T21:23:46.127Z,99.90
2018-07-23T21:26:14.952Z,99.90
2018-07-23T21:28:43.787Z,99.90
2018-07-23T21:31:12.789Z,99.90
2018-07-23T21:33:41.486Z,99.90
2018-07-23T21:36:11.015Z,99.90
2018-07-23T21:38:39.810Z,99.90
2018-07-23T21:41:08.624Z,99.90
2018-07-23T21:43:37.380Z,99.90
2018-07-23T21:46:06.235Z,99.90
2018-07-23T21:48:35.132Z,99.90
2018-07-23T21:51:03.906Z,99.90
2018-07-23T21:53:32.685Z,99.90
2018-07-23T21:56:01.461Z,99.90
2018-07-23T21:58:30.257Z,99.90
2018-07-23T22:00:59.001Z,99.90
2018-07-23T22:03:27.753Z,99.90
2018-07-23T22:05:56.492Z,99.90
2018-07-23T22:08:25.264Z,99.90
2018-07-23T22:10:54.062Z,99.90
2018-07-23T22:13:22.932Z,99.90
2018-07-23T22:15:51.722Z,99.90
2018-07-23T22:18:20.539Z,99.90
2018-07-23T22:20:49.317Z,99.90
2018-07-23T22:23:18.114Z,99.90
2018-07-23T22:25:46.979Z,99.90
2018-07-23T22:28:15.789Z,99.90
2018-07-23T22:30:44.728Z,99.90
2018-07-23T22:33:13.565Z,99.90
2018-07-23T22:35:42.391Z,99.90
2018-07-23T22:38:11.337Z,99.90
2018-07-23T22:40:40.131Z,99.90
2018-07-23T22:43:08.954Z,99.90
2018-07-23T22:45:37.802Z,99.90
2018-07-23T22:48:06.569Z,99.90
2018-07-23T22:50:35.421Z,99.90
2018-07-23T22:53:04.191Z,99.90
2018-07-23T22:55:32.989Z,99.90
2018-07-23T22:58:01.728Z,99.90
2018-07-23T23:00:30.517Z,99.90
2018-07-23T23:02:59.294Z,99.90
2018-07-23T23:05:28.025Z,99.90
2018-07-23T23:07:56.808Z,99.90
2018-07-23T23:10:25.618Z,99.90
2018-07-23T23:13:01.089Z,99.90
2018-07-23T23:15:29.902Z,99.90
2018-07-23T23:17:58.717Z,99.90
2018-07-23T23:20:27.540Z,99.90
2018-07-23T23:22:56.349Z,99.90
2018-07-23T23:25:25.167Z,99.90
2018-07-23T23:27:53.937Z,99.90
2018-07-23T23:30:22.783Z,99.90
2018-07-23T23:32:51.628Z,99.90
2018-07-23T23:35:20.842Z,99.90
2018-07-23T23:37:49.666Z,99.90
2018-07-23T23:40:18.461Z,99.90
2018-07-23T23:42:47.308Z,99.90
2018-07-23T23:45:16.135Z,99.90
2018-07-23T23:47:44.983Z,99.90
2018-07-23T23:50:13.803Z,99.90
2018-07-23T23:52:42.568Z,99.90
2018-07-23T23:55:11.342Z,99.90
2018-07-23T23:57:40.177Z,99.90
